createdAt,value
2022-08-21T00:02:40.223Z,5.05
2022-08-21T00:07:45.455Z,4.20
2022-08-21T00:12:50.521Z,4.00
2022-08-21T00:17:52.525Z,4.53
2022-08-21T00:22:57.574Z,4.32
2022-08-21T00:27:59.714Z,3.78
2022-08-21T00:33:07.090Z,3.72
2022-08-21T00:38:10.964Z,3.83
2022-08-21T00:43:18.243Z,2.92
2022-08-21T00:48:20.184Z,2.47
2022-08-21T00:53:22.579Z,3.00
2022-08-21T00:58:27.681Z,2.38
2022-08-21T01:03:30.430Z,2.55
2022-08-21T01:08:34.249Z,2.50
2022-08-21T01:13:39.316Z,2.65
2022-08-21T01:18:45.905Z,2.10
2022-08-21T01:23:50.638Z,2.20
2022-08-21T01:29:00.877Z,1.88
2022-08-21T01:34:04.898Z,2.80
2022-08-21T01:39:10.157Z,2.08
2022-08-21T01:44:11.950Z,2.00
2022-08-21T01:49:16.214Z,2.10
2022-08-21T01:54:19.379Z,2.08
2022-08-21T01:59:24.843Z,1.90
2022-08-21T02:04:26.628Z,1.80
2022-08-21T02:09:30.863Z,2.58
2022-08-21T02:14:37.912Z,2.90
2022-08-21T02:19:42.003Z,2.30
2022-08-21T02:24:54.801Z,2.88
2022-08-21T02:29:58.676Z,2.20
2022-08-21T02:35:02.716Z,3.13
2022-08-21T02:40:07.421Z,2.15
2022-08-21T02:45:09.651Z,1.85
2022-08-21T02:50:13.805Z,2.30
2022-08-21T02:55:21.853Z,2.75
2022-08-21T03:00:27.029Z,3.03
2022-08-21T03:05:32.247Z,3.33
2022-08-21T03:10:35.671Z,3.90
2022-08-21T03:15:41.026Z,3.00
2022-08-21T03:20:43.357Z,2.40
2022-08-21T03:25:49.258Z,2.88
2022-08-21T03:30:55.093Z,2.72
2022-08-21T03:36:05.670Z,2.78
2022-08-21T03:41:12.160Z,2.53
2022-08-21T03:46:14.797Z,2.78
2022-08-21T03:51:16.654Z,2.38
2022-08-21T03:56:20.859Z,2.55
2022-08-21T04:01:22.643Z,2.65
2022-08-21T04:06:24.607Z,2.60
2022-08-21T04:11:28.273Z,3.05
2022-08-21T04:16:32.298Z,4.93
2022-08-21T04:21:38.128Z,4.57
2022-08-21T04:26:44.920Z,4.15
2022-08-21T04:31:46.632Z,4.80
2022-08-21T04:36:48.410Z,4.60
2022-08-21T04:41:50.336Z,6.35
2022-08-21T04:46:52.632Z,6.13
2022-08-21T04:51:57.260Z,7.60
2022-08-21T04:57:06.326Z,8.38
2022-08-21T05:02:09.747Z,8.40
2022-08-21T05:07:41.659Z,8.23
2022-08-21T05:12:43.936Z,8.55
2022-08-21T05:17:53.736Z,7.82
2022-08-21T05:23:15.228Z,8.70
2022-08-21T05:28:16.987Z,7.43
2022-08-21T05:33:23.576Z,7.60
2022-08-21T05:38:29.417Z,7.63
2022-08-21T05:43:31.495Z,9.00
2022-08-21T05:48:33.633Z,7.32
2022-08-21T05:53:36.318Z,5.82
2022-08-21T05:58:38.410Z,5.95
2022-08-21T06:03:43.746Z,6.03
2022-08-21T06:08:47.979Z,5.68
2022-08-21T06:13:53.299Z,4.97
2022-08-21T06:19:00.727Z,4.25
2022-08-21T06:24:05.809Z,4.15
2022-08-21T06:29:08.565Z,3.75
2022-08-21T06:34:12.589Z,3.47
2022-08-21T06:39:16.604Z,3.72
2022-08-21T06:44:27.656Z,3.90
2022-08-21T06:49:31.654Z,3.90
2022-08-21T06:54:41.342Z,3.30
2022-08-21T06:59:47.940Z,2.88
2022-08-21T07:04:49.753Z,2.97
2022-08-21T07:09:53.949Z,3.45
2022-08-21T07:14:55.909Z,3.30
2022-08-21T07:20:00.215Z,3.40
2022-08-21T07:25:05.268Z,2.50
2022-08-21T07:30:10.274Z,2.97
2022-08-21T07:35:14.541Z,2.50
2022-08-21T07:40:18.112Z,2.75
2022-08-21T07:45:25.320Z,2.75
2022-08-21T07:50:30.490Z,2.70
2022-08-21T07:55:35.831Z,2.95
2022-08-21T08:00:43.417Z,2.20
2022-08-21T08:05:50.365Z,2.80
2022-08-21T08:10:58.299Z,2.30
2022-08-21T08:16:00.074Z,2.78
2022-08-21T08:21:01.850Z,3.08
2022-08-21T08:26:06.940Z,2.90
2022-08-21T08:31:11.830Z,2.80
2022-08-21T08:36:15.879Z,2.35
2022-08-21T08:41:22.660Z,2.60
2022-08-21T08:46:40.621Z,2.42
2022-08-21T08:51:55.819Z,2.63
2022-08-21T08:57:04.478Z,2.33
2022-08-21T09:02:06.749Z,2.25
2022-08-21T09:07:30.174Z,2.95
2022-08-21T09:12:41.015Z,2.03
2022-08-21T09:17:54.709Z,2.78
2022-08-21T09:23:10.895Z,2.30
2022-08-21T09:28:15.090Z,2.50
2022-08-21T09:33:22.413Z,2.15
2022-08-21T09:38:35.793Z,2.38
2022-08-21T09:43:41.032Z,1.70
2022-08-21T09:48:51.409Z,1.60
2022-08-21T09:54:01.558Z,2.45
2022-08-21T09:59:37.252Z,1.83
2022-08-21T10:04:40.253Z,1.70
2022-08-21T10:09:45.583Z,2.40
2022-08-21T10:14:56.791Z,1.80
2022-08-21T10:20:03.220Z,2.10
2022-08-21T10:25:27.634Z,1.40
2022-08-21T10:30:42.427Z,1.92
2022-08-21T10:36:19.253Z,1.85
2022-08-21T10:42:04.081Z,1.73
2022-08-21T10:47:12.020Z,1.80
2022-08-21T10:52:19.721Z,1.67
2022-08-21T10:57:49.093Z,1.70
2022-08-21T11:03:19.056Z,1.85
2022-08-21T11:08:38.268Z,1.73
2022-08-21T11:13:52.340Z,1.85
2022-08-21T11:19:03.726Z,1.27
2022-08-21T11:24:31.523Z,1.50
2022-08-21T11:29:36.858Z,1.80
2022-08-21T11:34:48.199Z,1.52
2022-08-21T11:39:59.575Z,1.50
2022-08-21T11:45:22.858Z,1.52
2022-08-21T11:50:36.096Z,1.50
2022-08-21T11:55:58.062Z,1.55
2022-08-21T12:01:12.620Z,1.40
2022-08-21T12:06:31.823Z,1.52
2022-08-21T12:12:02.556Z,1.17
2022-08-21T12:17:14.668Z,1.95
2022-08-21T12:22:18.459Z,1.10
2022-08-21T12:27:48.766Z,1.20
2022-08-21T12:33:18.657Z,1.13
2022-08-21T12:38:24.995Z,1.17
2022-08-21T12:43:33.082Z,1.10
2022-08-21T12:49:18.091Z,1.40
2022-08-21T12:54:32.022Z,1.02
2022-08-21T12:59:38.420Z,1.17
2022-08-21T13:04:41.401Z,1.10
2022-08-21T13:10:16.487Z,1.00
2022-08-21T13:15:26.558Z,1.10
2022-08-21T13:20:39.986Z,1.23
2022-08-21T13:25:41.929Z,1.00
2022-08-21T13:30:51.409Z,1.15
2022-08-21T13:36:05.753Z,0.98
2022-08-21T13:41:17.003Z,1.10
2022-08-21T13:46:22.974Z,1.00
2022-08-21T13:51:27.265Z,1.02
2022-08-21T13:56:37.349Z,1.08
2022-08-21T14:01:52.363Z,1.35
2022-08-21T14:06:58.989Z,1.10
2022-08-21T14:12:23.182Z,1.00
2022-08-21T14:17:33.948Z,1.30
2022-08-21T14:22:35.824Z,1.52
2022-08-21T14:27:45.673Z,1.75
2022-08-21T14:32:48.529Z,2.05
2022-08-21T14:37:55.040Z,1.80
2022-08-21T14:43:00.313Z,1.88
2022-08-21T14:48:05.460Z,2.25
2022-08-21T14:53:10.880Z,1.95
2022-08-21T14:58:15.719Z,2.05
2022-08-21T15:03:20.000Z,1.88
2022-08-21T15:08:21.871Z,1.77
2022-08-21T15:13:24.103Z,1.65
2022-08-21T15:18:28.165Z,2.53
2022-08-21T15:23:32.721Z,2.58
2022-08-21T15:28:35.506Z,1.85
2022-08-21T15:33:39.997Z,2.58
2022-08-21T15:38:54.193Z,2.88
2022-08-21T15:43:58.574Z,2.17
2022-08-21T15:49:05.146Z,2.10
2022-08-21T15:54:06.991Z,2.13
2022-08-21T15:59:22.823Z,2.13
2022-08-21T16:04:27.131Z,2.75
2022-08-21T16:09:30.890Z,2.17
2022-08-21T16:14:34.151Z,2.47
2022-08-21T16:19:37.308Z,2.45
2022-08-21T16:24:44.385Z,2.90
2022-08-21T16:29:47.030Z,2.40
2022-08-21T16:34:50.075Z,2.63
2022-08-21T16:39:55.115Z,2.33
2022-08-21T16:44:59.614Z,2.40
2022-08-21T16:50:06.532Z,2.15
2022-08-21T16:55:11.056Z,2.08
2022-08-21T17:00:14.660Z,2.15
2022-08-21T17:05:19.136Z,2.22
2022-08-21T17:10:23.440Z,2.13
2022-08-21T17:15:31.429Z,2.27
2022-08-21T17:44:46.270Z,1.85
2022-08-21T17:49:48.279Z,2.60
2022-08-21T17:54:50.895Z,2.65
2022-08-21T17:59:57.698Z,2.35
2022-08-21T18:09:40.987Z,3.25
2022-08-21T18:14:42.919Z,2.08
2022-08-21T18:19:49.003Z,2.65
2022-08-21T18:24:51.227Z,2.28
2022-08-21T18:29:55.337Z,2.65
2022-08-21T18:34:57.558Z,2.67
2022-08-21T18:39:59.703Z,2.20
2022-08-21T18:45:07.621Z,2.55
2022-08-21T18:50:12.473Z,2.70
2022-08-21T18:55:16.722Z,2.28
2022-08-21T19:00:31.906Z,2.50
2022-08-21T19:05:34.857Z,2.80
2022-08-21T19:10:39.389Z,2.50
2022-08-21T19:15:53.004Z,2.28
2022-08-21T19:20:55.020Z,2.75
2022-08-21T19:26:00.878Z,2.85
2022-08-21T19:31:16.429Z,2.35
2022-08-21T19:36:18.656Z,2.72
2022-08-21T19:41:24.213Z,3.17
2022-08-21T19:46:35.089Z,2.20
2022-08-21T19:51:37.032Z,2.20
2022-08-21T19:56:41.968Z,2.90
2022-08-21T20:01:43.968Z,2.15
2022-08-21T20:06:51.227Z,2.35
2022-08-21T20:11:58.313Z,2.20
2022-08-21T20:17:06.097Z,3.00
2022-08-21T20:22:10.634Z,2.70
2022-08-21T20:27:16.484Z,3.33
2022-08-21T20:32:22.633Z,2.72
2022-08-21T20:37:36.331Z,2.72
2022-08-21T20:42:47.246Z,2.80
2022-08-21T20:47:52.736Z,2.67
2022-08-21T20:53:07.386Z,3.38
2022-08-21T20:58:16.058Z,2.30
2022-08-21T21:03:30.335Z,2.92
2022-08-21T21:08:58.565Z,3.25
2022-08-21T21:14:13.704Z,2.85
2022-08-21T21:19:23.379Z,3.13
2022-08-21T21:24:33.454Z,2.88
2022-08-21T21:29:41.659Z,2.22
2022-08-21T21:34:45.441Z,2.63
2022-08-21T21:39:54.487Z,3.10
2022-08-21T21:45:20.633Z,3.55
2022-08-21T21:50:33.758Z,3.92
2022-08-21T21:56:27.500Z,3.72
2022-08-21T22:01:47.069Z,3.15
2022-08-21T22:07:17.627Z,3.20
2022-08-21T22:12:28.764Z,3.03
2022-08-21T22:17:45.102Z,3.28
2022-08-21T22:22:48.415Z,3.85
2022-08-21T22:27:59.663Z,3.72
2022-08-21T22:33:01.494Z,3.95
2022-08-21T22:38:18.459Z,3.75
2022-08-21T22:43:25.173Z,3.63
2022-08-21T22:53:59.187Z,4.30
2022-08-21T22:59:10.326Z,3.85
2022-08-21T23:04:22.121Z,4.38
2022-08-21T23:09:59.822Z,4.25
2022-08-21T23:15:12.559Z,4.05
2022-08-21T23:20:42.387Z,4.45
2022-08-21T23:26:01.885Z,3.97
2022-08-21T23:31:32.641Z,3.03
2022-08-21T23:37:00.109Z,3.95
2022-08-21T23:42:19.893Z,3.78
2022-08-21T23:47:51.029Z,4.38
2022-08-21T23:53:11.937Z,4.70
2022-08-21T23:58:18.474Z,4.50
